sensor_id;sensor_type;location;lat;lon;timestamp;temperature;humidity
71523;HTU21D;59343;51.102;5.884;2023-06-22T00:00:59;23.79;52.47
71523;HTU21D;59343;51.102;5.884;2023-06-22T00:03:26;23.79;52.40
71523;HTU21D;59343;51.102;5.884;2023-06-22T00:05:52;23.77;52.47
71523;HTU21D;59343;51.102;5.884;2023-06-22T00:08:19;23.76;52.58
71523;HTU21D;59343;51.102;5.884;2023-06-22T00:10:46;23.73;52.61
71523;HTU21D;59343;51.102;5.884;2023-06-22T00:13:13;23.65;52.70
71523;HTU21D;59343;51.102;5.884;2023-06-22T00:15:41;23.62;53.11
71523;HTU21D;59343;51.102;5.884;2023-06-22T00:18:09;23.65;53.27
71523;HTU21D;59343;51.102;5.884;2023-06-22T00:20:35;23.67;53.20
71523;HTU21D;59343;51.102;5.884;2023-06-22T00:23:06;23.68;53.20
71523;HTU21D;59343;51.102;5.884;2023-06-22T00:25:36;23.64;53.22
71523;HTU21D;59343;51.102;5.884;2023-06-22T00:28:03;23.62;53.33
71523;HTU21D;59343;51.102;5.884;2023-06-22T00:30:30;23.61;53.44
71523;HTU21D;59343;51.102;5.884;2023-06-22T00:32:57;23.61;53.58
71523;HTU21D;59343;51.102;5.884;2023-06-22T00:35:24;23.62;53.75
71523;HTU21D;59343;51.102;5.884;2023-06-22T00:37:59;23.59;53.83
71523;HTU21D;59343;51.102;5.884;2023-06-22T00:40:31;23.62;53.98
71523;HTU21D;59343;51.102;5.884;2023-06-22T00:42:58;23.67;54.07
71523;HTU21D;59343;51.102;5.884;2023-06-22T00:45:25;23.67;54.22
71523;HTU21D;59343;51.102;5.884;2023-06-22T00:47:56;23.64;54.42
71523;HTU21D;59343;51.102;5.884;2023-06-22T00:50:29;23.59;54.71
71523;HTU21D;59343;51.102;5.884;2023-06-22T00:53:03;23.60;55.03
71523;HTU21D;59343;51.102;5.884;2023-06-22T00:55:44;23.59;55.11
71523;HTU21D;59343;51.102;5.884;2023-06-22T00:58:13;23.56;55.21
71523;HTU21D;59343;51.102;5.884;2023-06-22T01:00:41;23.55;55.45
71523;HTU21D;59343;51.102;5.884;2023-06-22T01:03:07;23.49;55.75
71523;HTU21D;59343;51.102;5.884;2023-06-22T01:05:37;23.44;56.04
71523;HTU21D;59343;51.102;5.884;2023-06-22T01:08:25;23.45;56.36
71523;HTU21D;59343;51.102;5.884;2023-06-22T01:11:08;23.42;56.45
71523;HTU21D;59343;51.102;5.884;2023-06-22T01:16:25;23.34;57.31
71523;HTU21D;59343;51.102;5.884;2023-06-22T01:18:55;23.26;57.77
71523;HTU21D;59343;51.102;5.884;2023-06-22T01:21:25;23.13;58.36
71523;HTU21D;59343;51.102;5.884;2023-06-22T01:24:14;23.15;58.80
71523;HTU21D;59343;51.102;5.884;2023-06-22T01:29:43;23.13;59.42
71523;HTU21D;59343;51.102;5.884;2023-06-22T01:32:10;23.06;59.70
71523;HTU21D;59343;51.102;5.884;2023-06-22T01:34:38;23.01;60.10
71523;HTU21D;59343;51.102;5.884;2023-06-22T01:37:06;23.00;60.37
71523;HTU21D;59343;51.102;5.884;2023-06-22T01:39:34;22.95;60.57
71523;HTU21D;59343;51.102;5.884;2023-06-22T01:42:01;22.93;60.86
71523;HTU21D;59343;51.102;5.884;2023-06-22T01:44:28;22.91;61.08
71523;HTU21D;59343;51.102;5.884;2023-06-22T01:46:55;22.86;61.33
71523;HTU21D;59343;51.102;5.884;2023-06-22T01:49:22;22.83;61.59
71523;HTU21D;59343;51.102;5.884;2023-06-22T01:51:48;22.80;61.79
71523;HTU21D;59343;51.102;5.884;2023-06-22T01:54:14;22.79;62.01
71523;HTU21D;59343;51.102;5.884;2023-06-22T01:56:40;22.79;62.15
71523;HTU21D;59343;51.102;5.884;2023-06-22T02:01:51;22.80;62.24
71523;HTU21D;59343;51.102;5.884;2023-06-22T02:04:27;22.82;62.32
71523;HTU21D;59343;51.102;5.884;2023-06-22T02:06:58;22.81;62.47
71523;HTU21D;59343;51.102;5.884;2023-06-22T02:09:29;22.80;62.64
71523;HTU21D;59343;51.102;5.884;2023-06-22T02:11:56;22.79;62.71
71523;HTU21D;59343;51.102;5.884;2023-06-22T02:14:24;22.79;62.88
71523;HTU21D;59343;51.102;5.884;2023-06-22T02:16:51;22.79;62.95
71523;HTU21D;59343;51.102;5.884;2023-06-22T02:19:23;22.81;63.18
71523;HTU21D;59343;51.102;5.884;2023-06-22T02:21:49;22.82;63.24
71523;HTU21D;59343;51.102;5.884;2023-06-22T02:24:14;22.84;63.25
71523;HTU21D;59343;51.102;5.884;2023-06-22T02:26:42;22.85;63.28
71523;HTU21D;59343;51.102;5.884;2023-06-22T02:29:10;22.86;63.42
71523;HTU21D;59343;51.102;5.884;2023-06-22T02:31:35;22.84;63.50
71523;HTU21D;59343;51.102;5.884;2023-06-22T02:34:01;22.79;63.74
71523;HTU21D;59343;51.102;5.884;2023-06-22T02:36:27;22.79;63.97
71523;HTU21D;59343;51.102;5.884;2023-06-22T02:38:57;22.79;64.13
71523;HTU21D;59343;51.102;5.884;2023-06-22T02:41:24;22.80;64.27
71523;HTU21D;59343;51.102;5.884;2023-06-22T02:43:53;22.81;64.35
71523;HTU21D;59343;51.102;5.884;2023-06-22T02:46:19;22.79;64.43
71523;HTU21D;59343;51.102;5.884;2023-06-22T02:48:45;22.79;64.71
71523;HTU21D;59343;51.102;5.884;2023-06-22T02:51:11;22.76;64.79
71523;HTU21D;59343;51.102;5.884;2023-06-22T02:53:37;22.73;64.94
71523;HTU21D;59343;51.102;5.884;2023-06-22T02:56:03;22.72;65.10
71523;HTU21D;59343;51.102;5.884;2023-06-22T02:58:32;22.68;65.30
71523;HTU21D;59343;51.102;5.884;2023-06-22T03:01:05;22.63;65.44
71523;HTU21D;59343;51.102;5.884;2023-06-22T03:03:32;22.57;65.60
71523;HTU21D;59343;51.102;5.884;2023-06-22T03:05:58;22.54;65.91
71523;HTU21D;59343;51.102;5.884;2023-06-22T03:08:24;22.56;66.02
71523;HTU21D;59343;51.102;5.884;2023-06-22T03:10:50;22.57;66.01
71523;HTU21D;59343;51.102;5.884;2023-06-22T03:13:15;22.57;66.04
71523;HTU21D;59343;51.102;5.884;2023-06-22T03:15:42;22.57;66.14
71523;HTU21D;59343;51.102;5.884;2023-06-22T03:18:08;22.51;66.31
71523;HTU21D;59343;51.102;5.884;2023-06-22T03:20:33;22.47;66.45
71523;HTU21D;59343;51.102;5.884;2023-06-22T03:22:59;22.42;66.68
71523;HTU21D;59343;51.102;5.884;2023-06-22T03:25:26;22.41;66.72
71523;HTU21D;59343;51.102;5.884;2023-06-22T03:27:53;22.39;66.82
71523;HTU21D;59343;51.102;5.884;2023-06-22T03:30:22;22.39;66.78
71523;HTU21D;59343;51.102;5.884;2023-06-22T03:32:47;22.38;66.93
71523;HTU21D;59343;51.102;5.884;2023-06-22T03:35:13;22.40;66.96
71523;HTU21D;59343;51.102;5.884;2023-06-22T03:37:39;22.41;66.93
71523;HTU21D;59343;51.102;5.884;2023-06-22T03:40:06;22.38;66.91
71523;HTU21D;59343;51.102;5.884;2023-06-22T03:42:33;22.39;66.92
71523;HTU21D;59343;51.102;5.884;2023-06-22T03:45:02;22.42;66.86
71523;HTU21D;59343;51.102;5.884;2023-06-22T03:47:29;22.46;66.88
71523;HTU21D;59343;51.102;5.884;2023-06-22T03:49:57;22.50;66.82
71523;HTU21D;59343;51.102;5.884;2023-06-22T03:52:23;22.54;66.83
71523;HTU21D;59343;51.102;5.884;2023-06-22T03:54:49;22.60;66.75
71523;HTU21D;59343;51.102;5.884;2023-06-22T03:57:15;22.64;66.71
71523;HTU21D;59343;51.102;5.884;2023-06-22T03:59:40;22.62;66.78
71523;HTU21D;59343;51.102;5.884;2023-06-22T04:02:06;22.61;66.98
71523;HTU21D;59343;51.102;5.884;2023-06-22T04:04:32;22.56;67.15
71523;HTU21D;59343;51.102;5.884;2023-06-22T04:06:59;22.56;67.28
71523;HTU21D;59343;51.102;5.884;2023-06-22T04:09:25;22.51;67.44
71523;HTU21D;59343;51.102;5.884;2023-06-22T04:11:50;22.50;67.68
71523;HTU21D;59343;51.102;5.884;2023-06-22T04:14:17;22.48;67.88
71523;HTU21D;59343;51.102;5.884;2023-06-22T04:16:42;22.43;68.10
71523;HTU21D;59343;51.102;5.884;2023-06-22T04:19:08;22.40;68.38
71523;HTU21D;59343;51.102;5.884;2023-06-22T04:21:39;22.40;68.49
71523;HTU21D;59343;51.102;5.884;2023-06-22T04:24:06;22.41;68.43
71523;HTU21D;59343;51.102;5.884;2023-06-22T04:26:32;22.43;68.52
71523;HTU21D;59343;51.102;5.884;2023-06-22T04:29:04;22.46;68.31
71523;HTU21D;59343;51.102;5.884;2023-06-22T04:31:32;22.41;68.39
71523;HTU21D;59343;51.102;5.884;2023-06-22T04:34:03;22.43;68.52
71523;HTU21D;59343;51.102;5.884;2023-06-22T04:36:38;22.46;68.60
71523;HTU21D;59343;51.102;5.884;2023-06-22T04:39:05;22.48;68.49
71523;HTU21D;59343;51.102;5.884;2023-06-22T04:41:32;22.46;68.53
71523;HTU21D;59343;51.102;5.884;2023-06-22T04:44:09;22.44;68.60
71523;HTU21D;59343;51.102;5.884;2023-06-22T04:46:35;22.48;68.68
71523;HTU21D;59343;51.102;5.884;2023-06-22T04:49:07;22.52;68.46
71523;HTU21D;59343;51.102;5.884;2023-06-22T04:51:41;22.55;68.37
71523;HTU21D;59343;51.102;5.884;2023-06-22T04:54:09;22.55;68.60
71523;HTU21D;59343;51.102;5.884;2023-06-22T04:56:35;22.62;68.51
71523;HTU21D;59343;51.102;5.884;2023-06-22T04:59:01;22.66;68.36
71523;HTU21D;59343;51.102;5.884;2023-06-22T05:01:29;22.68;68.23
71523;HTU21D;59343;51.102;5.884;2023-06-22T05:03:57;22.72;68.17
71523;HTU21D;59343;51.102;5.884;2023-06-22T05:06:24;22.78;68.07
71523;HTU21D;59343;51.102;5.884;2023-06-22T05:08:53;22.81;68.11
71523;HTU21D;59343;51.102;5.884;2023-06-22T05:11:26;22.86;67.78
71523;HTU21D;59343;51.102;5.884;2023-06-22T05:13:53;22.90;67.65
71523;HTU21D;59343;51.102;5.884;2023-06-22T05:16:20;22.92;67.35
71523;HTU21D;59343;51.102;5.884;2023-06-22T05:18:53;22.91;67.07
71523;HTU21D;59343;51.102;5.884;2023-06-22T05:21:24;22.93;67.21
71523;HTU21D;59343;51.102;5.884;2023-06-22T05:23:51;22.96;66.85
71523;HTU21D;59343;51.102;5.884;2023-06-22T05:26:20;22.91;66.67
71523;HTU21D;59343;51.102;5.884;2023-06-22T05:28:53;22.88;66.94
71523;HTU21D;59343;51.102;5.884;2023-06-22T05:31:26;22.88;66.86
71523;HTU21D;59343;51.102;5.884;2023-06-22T05:34:03;22.86;67.04
71523;HTU21D;59343;51.102;5.884;2023-06-22T05:36:52;22.88;67.01
71523;HTU21D;59343;51.102;5.884;2023-06-22T05:39:59;22.92;67.05
71523;HTU21D;59343;51.102;5.884;2023-06-22T05:42:33;22.95;67.08
71523;HTU21D;59343;51.102;5.884;2023-06-22T05:45:26;22.98;66.88
71523;HTU21D;59343;51.102;5.884;2023-06-22T05:47:58;23.02;66.70
71523;HTU21D;59343;51.102;5.884;2023-06-22T05:50:37;23.07;66.66
71523;HTU21D;59343;51.102;5.884;2023-06-22T05:53:20;23.08;66.63
71523;HTU21D;59343;51.102;5.884;2023-06-22T05:56:09;23.03;66.40
71523;HTU21D;59343;51.102;5.884;2023-06-22T05:58:41;23.02;66.41
71523;HTU21D;59343;51.102;5.884;2023-06-22T06:10:23;23.00;66.91
71523;HTU21D;59343;51.102;5.884;2023-06-22T06:17:31;23.09;66.58
71523;HTU21D;59343;51.102;5.884;2023-06-22T06:20:45;23.09;66.59
71523;HTU21D;59343;51.102;5.884;2023-06-22T06:45:53;22.60;70.13
71523;HTU21D;59343;51.102;5.884;2023-06-22T06:48:23;22.52;71.44
71523;HTU21D;59343;51.102;5.884;2023-06-22T06:50:49;22.52;72.01
71523;HTU21D;59343;51.102;5.884;2023-06-22T06:53:15;22.52;72.74
71523;HTU21D;59343;51.102;5.884;2023-06-22T06:55:42;22.54;73.12
71523;HTU21D;59343;51.102;5.884;2023-06-22T06:58:11;22.55;73.30
71523;HTU21D;59343;51.102;5.884;2023-06-22T07:00:39;22.61;73.75
71523;HTU21D;59343;51.102;5.884;2023-06-22T07:07:08;22.50;73.73
71523;HTU21D;59343;51.102;5.884;2023-06-22T07:20:04;22.60;74.29
71523;HTU21D;59343;51.102;5.884;2023-06-22T07:28:35;22.91;73.54
71523;HTU21D;59343;51.102;5.884;2023-06-22T07:31:44;23.00;72.82
71523;HTU21D;59343;51.102;5.884;2023-06-22T07:34:44;23.05;72.56
71523;HTU21D;59343;51.102;5.884;2023-06-22T07:37:53;23.08;72.84
71523;HTU21D;59343;51.102;5.884;2023-06-22T07:40:44;23.16;73.09
71523;HTU21D;59343;51.102;5.884;2023-06-22T07:43:45;23.18;72.73
71523;HTU21D;59343;51.102;5.884;2023-06-22T07:47:05;23.22;72.82
71523;HTU21D;59343;51.102;5.884;2023-06-22T07:49:31;23.29;72.79
71523;HTU21D;59343;51.102;5.884;2023-06-22T07:52:13;23.32;72.48
71523;HTU21D;59343;51.102;5.884;2023-06-22T07:54:39;23.32;72.41
71523;HTU21D;59343;51.102;5.884;2023-06-22T07:57:08;23.34;71.63
71523;HTU21D;59343;51.102;5.884;2023-06-22T07:59:34;23.37;71.09
71523;HTU21D;59343;51.102;5.884;2023-06-22T08:02:05;23.39;70.32
71523;HTU21D;59343;51.102;5.884;2023-06-22T08:04:31;23.52;69.94
71523;HTU21D;59343;51.102;5.884;2023-06-22T08:07:00;23.72;69.71
71523;HTU21D;59343;51.102;5.884;2023-06-22T08:09:28;23.95;69.06
71523;HTU21D;59343;51.102;5.884;2023-06-22T08:11:54;24.02;68.29
71523;HTU21D;59343;51.102;5.884;2023-06-22T08:14:23;24.04;68.04
71523;HTU21D;59343;51.102;5.884;2023-06-22T08:16:49;24.14;68.02
71523;HTU21D;59343;51.102;5.884;2023-06-22T08:19:27;24.20;67.34
71523;HTU21D;59343;51.102;5.884;2023-06-22T08:22:09;24.29;67.49
71523;HTU21D;59343;51.102;5.884;2023-06-22T08:24:37;24.41;67.52
71523;HTU21D;59343;51.102;5.884;2023-06-22T08:27:07;24.60;67.48
71523;HTU21D;59343;51.102;5.884;2023-06-22T08:29:44;24.78;66.94
71523;HTU21D;59343;51.102;5.884;2023-06-22T08:32:13;24.83;66.11
71523;HTU21D;59343;51.102;5.884;2023-06-22T08:34:39;24.83;66.27
71523;HTU21D;59343;51.102;5.884;2023-06-22T08:37:09;24.87;65.94
71523;HTU21D;59343;51.102;5.884;2023-06-22T08:39:34;24.97;65.91
71523;HTU21D;59343;51.102;5.884;2023-06-22T08:42:00;25.04;65.84
71523;HTU21D;59343;51.102;5.884;2023-06-22T08:44:26;25.07;65.38
71523;HTU21D;59343;51.102;5.884;2023-06-22T08:46:52;25.08;65.33
71523;HTU21D;59343;51.102;5.884;2023-06-22T08:49:18;25.08;65.19
71523;HTU21D;59343;51.102;5.884;2023-06-22T08:51:43;25.16;65.17
71523;HTU21D;59343;51.102;5.884;2023-06-22T08:54:11;25.20;64.79
71523;HTU21D;59343;51.102;5.884;2023-06-22T08:56:37;25.24;64.83
71523;HTU21D;59343;51.102;5.884;2023-06-22T08:59:03;25.30;64.59
71523;HTU21D;59343;51.102;5.884;2023-06-22T09:01:33;25.37;64.62
71523;HTU21D;59343;51.102;5.884;2023-06-22T09:04:21;25.47;64.41
71523;HTU21D;59343;51.102;5.884;2023-06-22T09:06:49;25.52;64.09
71523;HTU21D;59343;51.102;5.884;2023-06-22T09:09:18;25.51;63.95
71523;HTU21D;59343;51.102;5.884;2023-06-22T09:11:44;25.51;64.03
71523;HTU21D;59343;51.102;5.884;2023-06-22T09:14:11;25.53;64.05
71523;HTU21D;59343;51.102;5.884;2023-06-22T09:16:37;25.58;64.04
71523;HTU21D;59343;51.102;5.884;2023-06-22T09:19:03;25.66;64.23
71523;HTU21D;59343;51.102;5.884;2023-06-22T09:21:29;25.76;64.37
71523;HTU21D;59343;51.102;5.884;2023-06-22T09:23:55;25.80;63.66
71523;HTU21D;59343;51.102;5.884;2023-06-22T09:26:21;25.77;63.61
71523;HTU21D;59343;51.102;5.884;2023-06-22T09:28:48;25.74;63.63
71523;HTU21D;59343;51.102;5.884;2023-06-22T09:31:14;25.71;63.78
71523;HTU21D;59343;51.102;5.884;2023-06-22T09:33:44;25.67;64.04
71523;HTU21D;59343;51.102;5.884;2023-06-22T09:36:10;25.63;64.21
71523;HTU21D;59343;51.102;5.884;2023-06-22T09:38:37;25.62;64.15
71523;HTU21D;59343;51.102;5.884;2023-06-22T09:41:03;25.56;64.34
71523;HTU21D;59343;51.102;5.884;2023-06-22T09:43:31;25.52;64.64
71523;HTU21D;59343;51.102;5.884;2023-06-22T09:45:57;25.43;64.63
71523;HTU21D;59343;51.102;5.884;2023-06-22T09:48:23;25.35;64.50
71523;HTU21D;59343;51.102;5.884;2023-06-22T09:50:49;25.23;64.77
71523;HTU21D;59343;51.102;5.884;2023-06-22T09:53:15;25.25;65.01
71523;HTU21D;59343;51.102;5.884;2023-06-22T09:55:41;25.27;64.92
71523;HTU21D;59343;51.102;5.884;2023-06-22T09:58:08;25.27;65.07
71523;HTU21D;59343;51.102;5.884;2023-06-22T10:00:34;25.29;65.14
71523;HTU21D;59343;51.102;5.884;2023-06-22T10:03:00;25.29;65.00
71523;HTU21D;59343;51.102;5.884;2023-06-22T10:05:25;25.22;64.91
71523;HTU21D;59343;51.102;5.884;2023-06-22T10:07:51;25.18;64.90
71523;HTU21D;59343;51.102;5.884;2023-06-22T10:10:18;25.15;65.06
71523;HTU21D;59343;51.102;5.884;2023-06-22T10:12:55;25.15;65.40
71523;HTU21D;59343;51.102;5.884;2023-06-22T10:15:21;25.08;65.16
71523;HTU21D;59343;51.102;5.884;2023-06-22T10:17:47;25.05;65.29
71523;HTU21D;59343;51.102;5.884;2023-06-22T10:20:13;25.06;65.47
71523;HTU21D;59343;51.102;5.884;2023-06-22T10:22:41;25.04;65.69
71523;HTU21D;59343;51.102;5.884;2023-06-22T10:25:52;25.03;66.64
71523;HTU21D;59343;51.102;5.884;2023-06-22T10:28:31;25.04;67.78
71523;HTU21D;59343;51.102;5.884;2023-06-22T10:35:21;25.02;69.71
71523;HTU21D;59343;51.102;5.884;2023-06-22T10:37:48;25.01;71.10
71523;HTU21D;59343;51.102;5.884;2023-06-22T10:52:19;24.44;75.01
71523;HTU21D;59343;51.102;5.884;2023-06-22T11:14:31;23.53;79.23
71523;HTU21D;59343;51.102;5.884;2023-06-22T11:42:35;24.69;77.69
71523;HTU21D;59343;51.102;5.884;2023-06-22T11:45:02;24.66;77.63
71523;HTU21D;59343;51.102;5.884;2023-06-22T11:47:32;24.70;77.74
71523;HTU21D;59343;51.102;5.884;2023-06-22T11:49:58;24.75;77.72
71523;HTU21D;59343;51.102;5.884;2023-06-22T11:52:24;24.73;77.24
71523;HTU21D;59343;51.102;5.884;2023-06-22T11:55:00;24.68;77.15
71523;HTU21D;59343;51.102;5.884;2023-06-22T11:57:28;24.62;77.05
71523;HTU21D;59343;51.102;5.884;2023-06-22T11:59:54;24.53;76.35
71523;HTU21D;59343;51.102;5.884;2023-06-22T12:02:25;24.39;76.34
71523;HTU21D;59343;51.102;5.884;2023-06-22T12:04:51;24.29;76.23
71523;HTU21D;59343;51.102;5.884;2023-06-22T12:07:18;24.23;76.24
71523;HTU21D;59343;51.102;5.884;2023-06-22T12:09:44;24.17;76.57
71523;HTU21D;59343;51.102;5.884;2023-06-22T12:12:10;24.15;76.68
71523;HTU21D;59343;51.102;5.884;2023-06-22T12:14:36;24.11;76.82
71523;HTU21D;59343;51.102;5.884;2023-06-22T12:17:02;24.02;77.45
71523;HTU21D;59343;51.102;5.884;2023-06-22T12:19:30;24.00;77.74
71523;HTU21D;59343;51.102;5.884;2023-06-22T12:21:56;23.95;77.29
71523;HTU21D;59343;51.102;5.884;2023-06-22T12:24:22;23.86;76.99
71523;HTU21D;59343;51.102;5.884;2023-06-22T12:26:48;23.82;76.64
71523;HTU21D;59343;51.102;5.884;2023-06-22T12:29:14;23.70;76.79
71523;HTU21D;59343;51.102;5.884;2023-06-22T12:31:40;23.65;76.91
71523;HTU21D;59343;51.102;5.884;2023-06-22T12:34:07;23.65;77.63
71523;HTU21D;59343;51.102;5.884;2023-06-22T12:36:33;23.64;78.05
71523;HTU21D;59343;51.102;5.884;2023-06-22T12:38:59;23.65;78.01
71523;HTU21D;59343;51.102;5.884;2023-06-22T12:41:24;23.57;77.80
71523;HTU21D;59343;51.102;5.884;2023-06-22T12:43:50;23.52;77.66
71523;HTU21D;59343;51.102;5.884;2023-06-22T12:46:16;23.51;77.70
71523;HTU21D;59343;51.102;5.884;2023-06-22T12:48:42;23.50;77.47
71523;HTU21D;59343;51.102;5.884;2023-06-22T12:51:09;23.52;77.50
71523;HTU21D;59343;51.102;5.884;2023-06-22T12:53:38;23.53;77.27
71523;HTU21D;59343;51.102;5.884;2023-06-22T12:56:03;23.44;77.19
71523;HTU21D;59343;51.102;5.884;2023-06-22T12:58:29;23.42;77.39
71523;HTU21D;59343;51.102;5.884;2023-06-22T13:00:55;23.44;77.24
71523;HTU21D;59343;51.102;5.884;2023-06-22T13:03:21;23.39;77.28
71523;HTU21D;59343;51.102;5.884;2023-06-22T13:05:47;23.35;77.28
71523;HTU21D;59343;51.102;5.884;2023-06-22T13:08:13;23.32;77.43
71523;HTU21D;59343;51.102;5.884;2023-06-22T13:10:39;23.30;77.47
71523;HTU21D;59343;51.102;5.884;2023-06-22T13:13:05;23.30;77.43
71523;HTU21D;59343;51.102;5.884;2023-06-22T13:15:31;23.26;77.25
71523;HTU21D;59343;51.102;5.884;2023-06-22T13:17:57;23.22;77.02
71523;HTU21D;59343;51.102;5.884;2023-06-22T13:20:22;23.22;77.21
71523;HTU21D;59343;51.102;5.884;2023-06-22T13:22:48;23.20;77.32
71523;HTU21D;59343;51.102;5.884;2023-06-22T13:25:14;23.17;77.25
71523;HTU21D;59343;51.102;5.884;2023-06-22T13:27:44;23.16;77.31
71523;HTU21D;59343;51.102;5.884;2023-06-22T13:30:10;23.18;77.07
71523;HTU21D;59343;51.102;5.884;2023-06-22T13:32:36;23.17;77.09
71523;HTU21D;59343;51.102;5.884;2023-06-22T13:35:02;23.24;77.15
71523;HTU21D;59343;51.102;5.884;2023-06-22T13:37:28;23.24;77.15
71523;HTU21D;59343;51.102;5.884;2023-06-22T13:39:54;23.20;77.09
71523;HTU21D;59343;51.102;5.884;2023-06-22T13:42:21;23.09;77.29
71523;HTU21D;59343;51.102;5.884;2023-06-22T13:44:47;23.01;77.43
71523;HTU21D;59343;51.102;5.884;2023-06-22T13:47:13;22.88;77.77
71523;HTU21D;59343;51.102;5.884;2023-06-22T13:49:39;22.84;77.95
71523;HTU21D;59343;51.102;5.884;2023-06-22T13:52:05;22.85;78.14
71523;HTU21D;59343;51.102;5.884;2023-06-22T13:54:36;22.91;78.17
71523;HTU21D;59343;51.102;5.884;2023-06-22T13:57:02;22.90;78.11
71523;HTU21D;59343;51.102;5.884;2023-06-22T13:59:28;22.88;78.24
71523;HTU21D;59343;51.102;5.884;2023-06-22T14:01:54;22.91;78.08
71523;HTU21D;59343;51.102;5.884;2023-06-22T14:04:21;22.86;78.33
71523;HTU21D;59343;51.102;5.884;2023-06-22T14:06:47;22.81;78.35
71523;HTU21D;59343;51.102;5.884;2023-06-22T14:09:13;22.79;78.50
71523;HTU21D;59343;51.102;5.884;2023-06-22T14:11:38;22.76;78.73
71523;HTU21D;59343;51.102;5.884;2023-06-22T14:14:04;22.71;78.81
71523;HTU21D;59343;51.102;5.884;2023-06-22T14:16:30;22.71;78.83
71523;HTU21D;59343;51.102;5.884;2023-06-22T14:18:56;22.69;79.14
71523;HTU21D;59343;51.102;5.884;2023-06-22T14:21:22;22.67;78.96
71523;HTU21D;59343;51.102;5.884;2023-06-22T14:23:47;22.63;79.12
71523;HTU21D;59343;51.102;5.884;2023-06-22T14:26:16;22.51;79.63
71523;HTU21D;59343;51.102;5.884;2023-06-22T14:28:48;22.41;79.71
71523;HTU21D;59343;51.102;5.884;2023-06-22T14:31:16;22.32;80.21
71523;HTU21D;59343;51.102;5.884;2023-06-22T14:33:46;22.21;80.50
71523;HTU21D;59343;51.102;5.884;2023-06-22T14:36:14;22.18;80.77
71523;HTU21D;59343;51.102;5.884;2023-06-22T14:38:40;22.13;80.87
71523;HTU21D;59343;51.102;5.884;2023-06-22T14:41:06;22.08;81.26
71523;HTU21D;59343;51.102;5.884;2023-06-22T14:43:32;22.11;81.23
71523;HTU21D;59343;51.102;5.884;2023-06-22T14:46:01;22.10;81.33
71523;HTU21D;59343;51.102;5.884;2023-06-22T14:48:52;21.96;82.55
71523;HTU21D;59343;51.102;5.884;2023-06-22T15:10:05;21.28;87.30
71523;HTU21D;59343;51.102;5.884;2023-06-22T15:25:05;21.07;88.36
71523;HTU21D;59343;51.102;5.884;2023-06-22T15:28:06;21.06;87.79
71523;HTU21D;59343;51.102;5.884;2023-06-22T15:30:34;21.03;88.06
71523;HTU21D;59343;51.102;5.884;2023-06-22T15:33:03;20.93;88.32
71523;HTU21D;59343;51.102;5.884;2023-06-22T15:35:35;20.86;88.34
71523;HTU21D;59343;51.102;5.884;2023-06-22T15:38:35;20.78;89.06
71523;HTU21D;59343;51.102;5.884;2023-06-22T15:41:52;20.73;89.16
71523;HTU21D;59343;51.102;5.884;2023-06-22T15:49:16;20.79;88.84
71523;HTU21D;59343;51.102;5.884;2023-06-22T15:51:43;20.76;88.97
71523;HTU21D;59343;51.102;5.884;2023-06-22T15:54:34;20.77;89.08
71523;HTU21D;59343;51.102;5.884;2023-06-22T15:58:03;20.78;89.40
71523;HTU21D;59343;51.102;5.884;2023-06-22T16:02:00;20.74;89.36
71523;HTU21D;59343;51.102;5.884;2023-06-22T16:04:32;20.75;89.32
71523;HTU21D;59343;51.102;5.884;2023-06-22T16:06:58;20.71;89.24
71523;HTU21D;59343;51.102;5.884;2023-06-22T16:30:57;20.27;90.28
71523;HTU21D;59343;51.102;5.884;2023-06-22T16:34:46;20.18;90.57
71523;HTU21D;59343;51.102;5.884;2023-06-22T17:01:36;19.99;89.52
71523;HTU21D;59343;51.102;5.884;2023-06-22T17:11:25;19.85;90.11
71523;HTU21D;59343;51.102;5.884;2023-06-22T17:14:45;19.84;90.07
71523;HTU21D;59343;51.102;5.884;2023-06-22T17:21:20;19.83;89.96
71523;HTU21D;59343;51.102;5.884;2023-06-22T17:24:15;19.83;89.99
71523;HTU21D;59343;51.102;5.884;2023-06-22T17:27:14;19.89;89.95
71523;HTU21D;59343;51.102;5.884;2023-06-22T17:30:10;19.89;89.95
71523;HTU21D;59343;51.102;5.884;2023-06-22T17:37:06;19.96;89.89
71523;HTU21D;59343;51.102;5.884;2023-06-22T18:15:08;19.95;90.44
71523;HTU21D;59343;51.102;5.884;2023-06-22T19:20:46;20.59;89.11
71523;HTU21D;59343;51.102;5.884;2023-06-22T19:23:35;20.58;89.09
71523;HTU21D;59343;51.102;5.884;2023-06-22T19:26:36;20.60;89.12
71523;HTU21D;59343;51.102;5.884;2023-06-22T19:42:33;20.65;88.92
71523;HTU21D;59343;51.102;5.884;2023-06-22T19:45:35;20.65;88.89
71523;HTU21D;59343;51.102;5.884;2023-06-22T19:53:13;20.69;89.00
71523;HTU21D;59343;51.102;5.884;2023-06-22T19:56:08;20.68;89.09
71523;HTU21D;59343;51.102;5.884;2023-06-22T19:59:23;20.66;89.24
71523;HTU21D;59343;51.102;5.884;2023-06-22T20:03:25;20.65;89.20
71523;HTU21D;59343;51.102;5.884;2023-06-22T20:07:16;20.64;89.24
71523;HTU21D;59343;51.102;5.884;2023-06-22T20:14:36;20.56;89.15
71523;HTU21D;59343;51.102;5.884;2023-06-22T20:27:14;20.35;89.11
71523;HTU21D;59343;51.102;5.884;2023-06-22T20:33:17;20.33;89.25
71523;HTU21D;59343;51.102;5.884;2023-06-22T20:35:59;20.32;89.11
71523;HTU21D;59343;51.102;5.884;2023-06-22T20:39:05;20.32;89.15
71523;HTU21D;59343;51.102;5.884;2023-06-22T20:42:05;20.32;89.09
71523;HTU21D;59343;51.102;5.884;2023-06-22T20:44:39;20.30;88.99
71523;HTU21D;59343;51.102;5.884;2023-06-22T20:47:43;20.25;89.08
71523;HTU21D;59343;51.102;5.884;2023-06-22T20:50:28;20.22;88.99
71523;HTU21D;59343;51.102;5.884;2023-06-22T20:53:38;20.20;88.89
71523;HTU21D;59343;51.102;5.884;2023-06-22T20:56:04;20.18;88.99
71523;HTU21D;59343;51.102;5.884;2023-06-22T21:02:16;20.16;88.83
71523;HTU21D;59343;51.102;5.884;2023-06-22T21:04:49;20.11;88.90
71523;HTU21D;59343;51.102;5.884;2023-06-22T21:07:47;20.13;88.75
71523;HTU21D;59343;51.102;5.884;2023-06-22T21:10:38;20.10;88.83
71523;HTU21D;59343;51.102;5.884;2023-06-22T21:18:20;20.01;89.00
71523;HTU21D;59343;51.102;5.884;2023-06-22T21:20:53;20.00;89.09
71523;HTU21D;59343;51.102;5.884;2023-06-22T21:23:22;20.00;89.05
71523;HTU21D;59343;51.102;5.884;2023-06-22T21:34:46;20.03;89.13
71523;HTU21D;59343;51.102;5.884;2023-06-22T21:42:08;20.11;89.11
71523;HTU21D;59343;51.102;5.884;2023-06-22T21:44:47;20.15;88.94
71523;HTU21D;59343;51.102;5.884;2023-06-22T21:47:13;20.14;88.92
71523;HTU21D;59343;51.102;5.884;2023-06-22T21:57:57;20.17;88.52
71523;HTU21D;59343;51.102;5.884;2023-06-22T22:01:11;20.15;88.28
71523;HTU21D;59343;51.102;5.884;2023-06-22T22:09:00;20.10;88.18
71523;HTU21D;59343;51.102;5.884;2023-06-22T22:15:08;20.09;88.11
71523;HTU21D;59343;51.102;5.884;2023-06-22T22:17:45;20.12;88.04
71523;HTU21D;59343;51.102;5.884;2023-06-22T22:20:31;20.13;87.98
71523;HTU21D;59343;51.102;5.884;2023-06-22T22:24:36;20.13;87.86
71523;HTU21D;59343;51.102;5.884;2023-06-22T22:34:27;20.03;87.58
71523;HTU21D;59343;51.102;5.884;2023-06-22T22:36:56;20.01;87.59